createdAt,value
2024-02-22T00:00:59.539Z,7.78
2024-02-22T00:01:59.499Z,7.85
2024-02-22T00:02:59.489Z,7.91
2024-02-22T00:03:59.485Z,7.91
2024-02-22T00:04:59.609Z,7.84
2024-02-22T00:05:59.465Z,7.78
2024-02-22T00:06:59.454Z,7.85
2024-02-22T00:08:00.450Z,7.91
2024-02-22T00:08:59.434Z,7.80
2024-02-22T00:09:59.460Z,7.78
2024-02-22T00:10:59.504Z,7.64
2024-02-22T00:11:59.416Z,7.72
2024-02-22T00:12:59.447Z,7.62
2024-02-22T00:13:59.412Z,7.74
2024-02-22T00:14:59.375Z,7.69
2024-02-22T00:15:59.354Z,7.74
2024-02-22T00:16:59.391Z,7.66
2024-02-22T00:17:59.378Z,7.64
2024-02-22T00:18:59.339Z,7.70
2024-02-22T00:19:59.383Z,7.61
2024-02-22T00:20:59.310Z,7.59
2024-02-22T00:22:00.345Z,7.56
2024-02-22T00:22:59.347Z,7.59
2024-02-22T00:24:01.989Z,7.64
2024-02-22T00:25:00.396Z,7.61
2024-02-22T00:25:59.365Z,7.66
2024-02-22T00:26:59.267Z,7.67
2024-02-22T00:27:59.211Z,7.66
2024-02-22T00:28:59.256Z,7.58
2024-02-22T00:29:59.226Z,7.56
2024-02-22T00:30:59.194Z,7.62
2024-02-22T00:31:59.260Z,7.51
2024-02-22T00:32:59.257Z,7.59
2024-02-22T00:33:59.289Z,7.67
2024-02-22T00:34:59.168Z,7.67
2024-02-22T00:35:59.191Z,7.59
2024-02-22T00:36:59.125Z,7.62
2024-02-22T00:37:59.289Z,7.62
2024-02-22T00:38:59.134Z,7.58
2024-02-22T00:39:59.108Z,7.58
2024-02-22T00:40:59.189Z,7.58
2024-02-22T00:41:59.091Z,7.55
2024-02-22T00:42:59.070Z,7.61
2024-02-22T00:43:59.125Z,7.59
2024-02-22T00:44:59.042Z,7.51
2024-02-22T00:45:59.050Z,7.50
2024-02-22T00:46:59.068Z,7.64
2024-02-22T00:47:59.099Z,7.51
2024-02-22T00:48:59.022Z,7.56
2024-02-22T00:49:59.123Z,7.58
2024-02-22T00:50:59.129Z,7.53
2024-02-22T00:51:59.010Z,7.56
2024-02-22T00:52:59.027Z,7.59
2024-02-22T00:53:58.970Z,7.55
2024-02-22T00:54:58.967Z,7.53
2024-02-22T00:55:59.963Z,7.61
2024-02-22T00:56:58.991Z,7.48
2024-02-22T00:57:58.898Z,7.51
2024-02-22T00:58:59.005Z,7.53
2024-02-22T00:59:58.930Z,7.55
2024-02-22T01:00:58.918Z,7.53
2024-02-22T01:01:58.973Z,7.55
2024-02-22T01:02:58.872Z,7.58
2024-02-22T01:03:58.909Z,7.55
2024-02-22T01:04:58.933Z,7.58
2024-02-22T01:05:58.868Z,7.56
2024-02-22T01:06:58.812Z,7.64
2024-02-22T01:07:58.888Z,7.58
2024-02-22T01:08:58.793Z,7.48
2024-02-22T01:09:58.780Z,7.56
2024-02-22T01:10:58.844Z,7.56
2024-02-22T01:11:58.877Z,7.56
2024-02-22T01:12:58.766Z,7.47
2024-02-22T01:13:58.759Z,7.58
2024-02-22T01:14:58.771Z,7.56
2024-02-22T01:15:58.715Z,7.53
2024-02-22T01:16:58.825Z,7.64
2024-02-22T01:17:58.764Z,7.64
2024-02-22T01:18:58.724Z,7.58
2024-02-22T01:19:58.702Z,7.59
2024-02-22T01:20:58.659Z,7.59
2024-02-22T01:21:58.691Z,7.62
2024-02-22T01:22:58.676Z,7.62
2024-02-22T01:23:58.630Z,7.58
2024-02-22T01:24:58.634Z,7.59
2024-02-22T01:25:59.071Z,7.64
2024-02-22T01:26:58.647Z,7.55
2024-02-22T01:27:58.604Z,7.58
2024-02-22T01:28:58.639Z,7.59
2024-02-22T01:29:58.594Z,7.51
2024-02-22T01:30:58.565Z,7.58
2024-02-22T01:31:58.571Z,7.53
2024-02-22T01:32:58.630Z,7.50
2024-02-22T01:33:58.628Z,7.55
2024-02-22T01:34:58.525Z,7.50
2024-02-22T01:35:58.535Z,7.46
2024-02-22T01:36:58.494Z,7.56
2024-02-22T01:37:58.531Z,7.47
2024-02-22T01:38:58.502Z,7.48
2024-02-22T01:39:58.454Z,7.51
2024-02-22T01:40:58.504Z,7.50
2024-02-22T01:41:58.453Z,7.53
2024-02-22T01:42:58.456Z,7.46
2024-02-22T01:43:58.493Z,7.58
2024-02-22T01:44:58.408Z,7.53
2024-02-22T01:45:58.408Z,7.61
2024-02-22T01:46:58.419Z,7.51
2024-02-22T01:47:59.493Z,7.62
2024-02-22T01:48:58.543Z,7.50
2024-02-22T01:49:58.368Z,7.56
2024-02-22T01:50:58.363Z,7.48
2024-02-22T01:51:58.376Z,7.58
2024-02-22T01:52:58.367Z,7.43
2024-02-22T01:53:58.319Z,7.48
2024-02-22T01:54:58.339Z,7.41
2024-02-22T01:55:58.354Z,7.46
2024-02-22T01:56:58.330Z,7.47
2024-02-22T01:57:58.278Z,7.44
2024-02-22T01:58:58.295Z,7.50
2024-02-22T01:59:58.277Z,7.48
2024-02-22T02:00:58.260Z,7.53
2024-02-22T02:01:58.246Z,7.53
2024-02-22T02:02:58.266Z,7.55
2024-02-22T02:03:58.264Z,7.47
2024-02-22T02:04:58.292Z,7.48
2024-02-22T02:05:58.257Z,7.51
2024-02-22T02:06:58.185Z,7.55
2024-02-22T02:07:58.175Z,7.50
2024-02-22T02:08:58.163Z,7.59
2024-02-22T02:09:58.211Z,7.51
2024-02-22T02:11:30.099Z,7.47
2024-02-22T02:11:58.226Z,7.46
2024-02-22T02:12:58.247Z,7.53
2024-02-22T02:13:58.203Z,7.47
2024-02-22T02:14:58.165Z,7.64
2024-02-22T02:15:58.173Z,7.61
2024-02-22T02:16:58.130Z,7.55
2024-02-22T02:17:58.210Z,7.48
2024-02-22T02:18:58.159Z,7.53
2024-02-22T02:19:58.162Z,7.58
2024-02-22T02:20:58.101Z,7.50
2024-02-22T02:21:58.046Z,7.59
2024-02-22T02:22:58.308Z,7.59
2024-02-22T02:23:58.061Z,7.48
2024-02-22T02:24:58.009Z,7.55
2024-02-22T02:25:58.069Z,7.59
2024-02-22T02:26:58.025Z,7.61
2024-02-22T02:27:58.186Z,7.50
2024-02-22T02:28:58.031Z,7.58
2024-02-22T02:29:58.035Z,7.50
2024-02-22T02:30:57.980Z,7.58
2024-02-22T02:31:58.040Z,7.47
2024-02-22T02:32:58.034Z,7.62
2024-02-22T02:33:57.921Z,7.64
2024-02-22T02:34:57.989Z,7.59
2024-02-22T02:35:57.936Z,7.58
2024-02-22T02:36:57.904Z,7.58
2024-02-22T02:37:57.952Z,7.59
2024-02-22T02:38:57.930Z,7.67
2024-02-22T02:39:57.883Z,7.59
2024-02-22T02:40:57.954Z,7.70
2024-02-22T02:41:57.889Z,7.61
2024-02-22T02:42:57.819Z,7.55
2024-02-22T02:43:57.917Z,7.62
2024-02-22T02:44:57.821Z,7.62
2024-02-22T02:45:57.847Z,7.61
2024-02-22T02:46:57.853Z,7.72
2024-02-22T02:47:57.922Z,7.59
2024-02-22T02:48:57.854Z,7.61
2024-02-22T02:49:57.852Z,7.61
2024-02-22T02:50:57.795Z,7.62
2024-02-22T02:51:57.710Z,7.59
2024-02-22T02:52:57.819Z,7.58
2024-02-22T02:53:57.731Z,7.69
2024-02-22T02:54:57.699Z,7.55
2024-02-22T02:55:57.766Z,7.56
2024-02-22T02:56:57.789Z,7.66
2024-02-22T02:57:57.695Z,7.56
2024-02-22T02:58:57.700Z,7.69
2024-02-22T02:59:57.696Z,7.56
2024-02-22T03:00:57.716Z,7.62
2024-02-22T03:01:57.709Z,7.61
2024-02-22T03:02:57.681Z,7.62
2024-02-22T03:03:57.652Z,7.64
2024-02-22T03:04:57.730Z,7.61
2024-02-22T03:05:57.830Z,7.69
2024-02-22T03:06:57.669Z,7.75
2024-02-22T03:07:57.625Z,7.64
2024-02-22T03:08:57.547Z,7.56
2024-02-22T03:09:57.591Z,7.59
2024-02-22T03:10:57.624Z,7.66
2024-02-22T03:11:57.583Z,7.64
2024-02-22T03:12:57.578Z,7.61
2024-02-22T03:13:57.529Z,7.66
2024-02-22T03:14:57.483Z,7.67
2024-02-22T03:15:57.500Z,7.74
2024-02-22T03:16:57.516Z,7.67
2024-02-22T03:17:57.523Z,7.67
2024-02-22T03:18:57.508Z,7.66
2024-02-22T03:19:57.517Z,7.66
2024-02-22T03:20:57.433Z,7.67
2024-02-22T03:21:57.417Z,7.69
2024-02-22T03:22:57.454Z,7.70
2024-02-22T03:23:57.407Z,7.66
2024-02-22T03:24:57.388Z,7.78
2024-02-22T03:25:57.590Z,7.70
2024-02-22T03:26:57.388Z,7.64
2024-02-22T03:27:57.337Z,7.72
2024-02-22T03:28:57.382Z,7.70
2024-02-22T03:29:57.326Z,7.72
2024-02-22T03:30:57.309Z,7.81
2024-02-22T03:31:57.376Z,7.75
2024-02-22T03:32:57.310Z,7.77
2024-02-22T03:33:57.317Z,7.72
2024-02-22T03:34:57.305Z,7.69
2024-02-22T03:35:57.287Z,7.67
2024-02-22T03:36:57.252Z,7.74
2024-02-22T03:37:57.295Z,7.66
2024-02-22T03:38:57.226Z,7.74
2024-02-22T03:39:57.231Z,7.62
2024-02-22T03:40:57.243Z,7.59
2024-02-22T03:41:57.285Z,7.70
2024-02-22T03:42:57.229Z,7.64
2024-02-22T03:43:57.226Z,7.69
2024-02-22T03:44:57.182Z,7.77
2024-02-22T03:45:57.183Z,7.78
2024-02-22T03:46:57.246Z,7.66
2024-02-22T03:47:57.177Z,7.70
2024-02-22T03:48:57.149Z,7.84
2024-02-22T03:49:57.177Z,7.69
2024-02-22T03:50:57.147Z,7.75
2024-02-22T03:51:57.080Z,7.66
2024-02-22T03:52:57.160Z,7.77
2024-02-22T03:53:57.086Z,7.70
2024-02-22T03:54:57.063Z,7.75
2024-02-22T03:55:59.679Z,7.74
2024-02-22T03:56:58.022Z,7.70
2024-02-22T03:57:57.048Z,7.84
2024-02-22T03:58:57.066Z,7.80
2024-02-22T03:59:56.995Z,7.69
2024-02-22T04:00:57.012Z,7.75
2024-02-22T04:01:57.076Z,7.84
2024-02-22T04:02:56.978Z,7.75
2024-02-22T04:03:57.018Z,7.74
2024-02-22T04:04:57.037Z,7.77
2024-02-22T04:05:56.982Z,7.77
2024-02-22T04:06:56.916Z,7.78
2024-02-22T04:07:56.951Z,7.72
2024-02-22T04:08:56.887Z,7.72
2024-02-22T04:09:56.900Z,7.72
2024-02-22T04:10:56.990Z,7.83
2024-02-22T04:11:56.897Z,7.75
2024-02-22T04:12:56.857Z,7.77
2024-02-22T04:13:56.896Z,7.78
2024-02-22T04:14:56.854Z,7.78
2024-02-22T04:15:56.835Z,7.69
2024-02-22T04:16:56.860Z,7.88
2024-02-22T04:17:56.893Z,7.84
2024-02-22T04:18:56.880Z,7.83
2024-02-22T04:19:56.842Z,7.81
2024-02-22T04:20:56.763Z,7.83
2024-02-22T04:21:56.751Z,7.70
2024-02-22T04:22:56.879Z,7.81
2024-02-22T04:23:56.736Z,7.77
2024-02-22T04:24:56.730Z,7.77
2024-02-22T04:25:56.747Z,7.84
2024-02-22T04:26:56.701Z,7.88
2024-02-22T04:27:56.710Z,7.80
2024-02-22T04:28:56.780Z,7.80
2024-02-22T04:29:56.676Z,7.84
2024-02-22T04:30:56.673Z,7.81
2024-02-22T04:31:56.692Z,7.91
2024-02-22T04:32:56.657Z,7.88
2024-02-22T04:33:57.637Z,7.88
2024-02-22T04:34:56.730Z,7.84
2024-02-22T04:35:56.679Z,7.96
2024-02-22T04:36:56.606Z,7.84
2024-02-22T04:37:56.673Z,7.85
2024-02-22T04:38:56.693Z,7.81
2024-02-22T04:39:56.587Z,7.93
2024-02-22T04:40:56.595Z,7.88
2024-02-22T04:41:56.610Z,7.80
2024-02-22T04:42:56.529Z,7.88
2024-02-22T04:43:56.573Z,7.77
2024-02-22T04:44:56.588Z,7.87
2024-02-22T04:45:56.492Z,7.90
2024-02-22T04:46:56.537Z,7.93
2024-02-22T04:47:56.563Z,7.90
2024-02-22T04:48:56.516Z,7.85
2024-02-22T04:49:56.528Z,7.85
2024-02-22T04:50:56.488Z,7.91
2024-02-22T04:51:56.444Z,7.84
2024-02-22T04:52:56.470Z,7.90
2024-02-22T04:53:56.438Z,7.96
2024-02-22T04:54:56.465Z,7.96
2024-02-22T04:55:56.420Z,7.93
2024-02-22T04:56:56.451Z,7.91
2024-02-22T04:57:56.421Z,7.85
2024-02-22T04:58:56.357Z,7.91
2024-02-22T04:59:56.388Z,7.90
2024-02-22T05:00:56.371Z,7.91
2024-02-22T05:01:56.357Z,7.90
2024-02-22T05:02:56.375Z,7.91
2024-02-22T05:03:56.474Z,7.93
2024-02-22T05:04:56.364Z,7.88
2024-02-22T05:05:56.357Z,7.95
2024-02-22T05:06:56.325Z,7.95
2024-02-22T05:07:56.310Z,7.91
2024-02-22T05:08:56.283Z,7.87
2024-02-22T05:09:56.304Z,7.87
2024-02-22T05:10:56.411Z,7.88
2024-02-22T05:11:56.299Z,7.93
2024-02-22T05:12:56.296Z,7.87
2024-02-22T05:13:56.258Z,7.93
2024-02-22T05:14:56.190Z,7.90
2024-02-22T05:15:56.262Z,8.01
2024-02-22T05:16:56.263Z,7.99
2024-02-22T05:17:58.302Z,7.98
2024-02-22T05:18:56.265Z,7.98
2024-02-22T05:19:56.170Z,7.98
2024-02-22T05:20:56.165Z,7.95
2024-02-22T05:21:56.180Z,7.95
2024-02-22T05:22:56.156Z,7.99
2024-02-22T05:23:56.114Z,8.01
2024-02-22T05:24:56.093Z,7.93
2024-02-22T05:25:56.173Z,7.91
2024-02-22T05:26:56.113Z,7.99
2024-02-22T05:27:56.075Z,7.95
2024-02-22T05:28:56.163Z,7.99
2024-02-22T05:29:56.045Z,8.01
2024-02-22T05:30:56.041Z,7.91
2024-02-22T05:31:56.126Z,7.90
2024-02-22T05:32:56.045Z,7.98
2024-02-22T05:33:56.052Z,8.03
2024-02-22T05:34:56.033Z,8.05
2024-02-22T05:35:55.980Z,7.98
2024-02-22T05:36:56.043Z,7.99
2024-02-22T05:37:55.989Z,7.99
2024-02-22T05:38:56.020Z,8.03
2024-02-22T05:39:55.985Z,8.05
2024-02-22T05:40:55.996Z,8.03
2024-02-22T05:41:55.927Z,8.03
2024-02-22T05:42:55.998Z,8.05
2024-02-22T05:43:55.935Z,8.03
2024-02-22T05:44:55.912Z,8.02
2024-02-22T05:45:55.906Z,8.02
2024-02-22T05:46:55.923Z,8.01
2024-02-22T05:47:55.972Z,8.08
2024-02-22T05:48:55.964Z,8.09
2024-02-22T05:49:55.926Z,8.05
2024-02-22T05:50:55.856Z,8.02
2024-02-22T05:51:55.888Z,8.01
2024-02-22T05:52:55.852Z,8.13
2024-02-22T05:53:55.837Z,8.11
2024-02-22T05:54:56.802Z,8.16
2024-02-22T05:55:55.861Z,8.09
2024-02-22T05:56:55.828Z,8.09
2024-02-22T05:57:55.766Z,8.02
2024-02-22T05:58:55.807Z,8.13
2024-02-22T05:59:55.769Z,8.11
2024-02-22T06:00:55.800Z,8.13
2024-02-22T06:01:55.863Z,8.06
2024-02-22T06:02:55.844Z,8.11
2024-02-22T06:03:55.805Z,8.09
2024-02-22T06:04:55.757Z,8.18
2024-02-22T06:05:55.837Z,8.16
2024-02-22T06:06:55.725Z,8.16
2024-02-22T06:07:55.778Z,8.24
2024-02-22T06:08:55.657Z,8.27
2024-02-22T06:09:55.677Z,8.20
2024-02-22T06:10:55.783Z,8.17
2024-02-22T06:11:55.688Z,8.18
2024-02-22T06:12:55.648Z,8.21
2024-02-22T06:13:55.606Z,8.14
2024-02-22T06:14:55.612Z,8.17
2024-02-22T06:15:55.622Z,8.16
2024-02-22T06:16:55.596Z,8.16
2024-02-22T06:17:55.643Z,8.18
2024-02-22T06:18:55.584Z,8.20
2024-02-22T06:19:55.561Z,8.20
2024-02-22T06:20:55.534Z,8.27
2024-02-22T06:21:55.592Z,8.24
2024-02-22T06:22:55.549Z,8.28
2024-02-22T06:23:55.725Z,8.26
2024-02-22T06:24:55.513Z,8.28
2024-02-22T06:25:55.484Z,8.27
2024-02-22T06:26:55.469Z,8.36
2024-02-22T06:27:55.493Z,8.31
2024-02-22T06:28:55.465Z,8.34
2024-02-22T06:29:55.436Z,8.28
2024-02-22T06:30:56.465Z,8.24
2024-02-22T06:31:55.455Z,8.26
2024-02-22T06:32:55.444Z,8.26
2024-02-22T06:33:55.558Z,8.23
2024-02-22T06:34:55.427Z,8.26
2024-02-22T06:35:55.408Z,8.21
2024-02-22T06:36:55.355Z,8.26
2024-02-22T06:37:55.465Z,8.23
2024-02-22T06:38:55.334Z,8.28
2024-02-22T06:39:55.325Z,8.24
2024-02-22T06:40:55.407Z,8.26
2024-02-22T06:41:55.308Z,8.26
2024-02-22T06:42:55.298Z,8.28
2024-02-22T06:43:55.514Z,8.27
2024-02-22T06:44:55.270Z,8.35
2024-02-22T06:45:55.275Z,8.36
2024-02-22T06:46:55.281Z,8.36
2024-02-22T06:47:55.399Z,8.34
2024-02-22T06:48:55.271Z,8.39
2024-02-22T06:49:55.238Z,8.36
2024-02-22T06:50:55.363Z,8.42
2024-02-22T06:51:55.322Z,8.34
2024-02-22T06:52:55.237Z,8.38
2024-02-22T06:53:55.226Z,8.38
2024-02-22T06:54:55.208Z,8.28
2024-02-22T06:55:55.266Z,8.44
2024-02-22T06:56:55.169Z,8.41
2024-02-22T06:57:55.184Z,8.39
2024-02-22T06:58:55.157Z,8.45
2024-02-22T06:59:55.171Z,8.44
2024-02-22T07:00:55.193Z,8.49
2024-02-22T07:01:55.145Z,8.42
2024-02-22T07:02:55.149Z,8.45
2024-02-22T07:03:55.100Z,8.49
2024-02-22T07:04:55.160Z,8.44
2024-02-22T07:05:55.079Z,8.56
2024-02-22T07:06:55.136Z,8.52
2024-02-22T07:07:55.107Z,8.46
2024-02-22T07:08:55.067Z,8.49
2024-02-22T07:09:55.045Z,8.52
2024-02-22T07:10:55.102Z,8.39
2024-02-22T07:11:55.159Z,8.56
2024-02-22T07:12:54.966Z,8.59
2024-02-22T07:13:55.000Z,8.57
2024-02-22T07:14:54.990Z,8.59
2024-02-22T07:15:54.984Z,8.64
2024-02-22T07:16:54.995Z,8.61
2024-02-22T07:17:55.076Z,8.59
2024-02-22T07:18:55.020Z,8.69
2024-02-22T07:19:55.028Z,8.68
2024-02-22T07:20:54.897Z,8.77
2024-02-22T07:21:54.873Z,8.71
2024-02-22T07:22:54.947Z,8.75
2024-02-22T07:23:54.943Z,8.69
2024-02-22T07:24:54.889Z,8.81
2024-02-22T07:25:54.888Z,8.86
2024-02-22T07:26:54.909Z,8.86
2024-02-22T07:27:54.854Z,8.86
2024-02-22T07:28:54.863Z,8.78
2024-02-22T07:29:54.814Z,8.89
2024-02-22T07:30:54.866Z,8.86
2024-02-22T07:31:54.848Z,8.89
2024-02-22T07:32:54.947Z,8.89
2024-02-22T07:33:55.017Z,8.93
2024-02-22T07:34:54.877Z,8.90
2024-02-22T07:35:54.737Z,9.03
2024-02-22T07:36:54.748Z,9.00
2024-02-22T07:37:54.815Z,9.03
2024-02-22T07:38:54.820Z,9.12
2024-02-22T07:39:54.715Z,9.09
2024-02-22T07:40:54.739Z,9.19
2024-02-22T07:41:54.689Z,9.05
2024-02-22T07:42:54.679Z,9.05
2024-02-22T07:43:54.704Z,8.97
2024-02-22T07:44:54.686Z,9.12
2024-02-22T07:45:54.627Z,9.12
2024-02-22T07:46:54.689Z,9.12
2024-02-22T07:47:54.708Z,9.12
2024-02-22T07:48:54.670Z,9.00
2024-02-22T07:49:54.666Z,9.09
2024-02-22T07:50:54.606Z,9.11
2024-02-22T07:51:58.333Z,9.03
2024-02-22T07:52:54.702Z,9.08
2024-02-22T07:53:54.565Z,9.03
2024-02-22T07:54:54.579Z,8.97
2024-02-22T07:55:54.548Z,9.05
2024-02-22T07:56:54.522Z,9.00
2024-02-22T07:57:54.553Z,8.97
2024-02-22T07:58:54.678Z,8.90
2024-02-22T07:59:54.478Z,9.02
2024-02-22T08:00:54.623Z,9.00
2024-02-22T08:01:57.442Z,9.02
2024-02-22T08:02:54.447Z,8.93
2024-02-22T08:03:54.510Z,8.93
2024-02-22T08:04:54.479Z,8.87
2024-02-22T08:05:54.493Z,8.84
2024-02-22T08:06:54.470Z,8.87
2024-02-22T08:07:54.468Z,8.90
2024-02-22T08:08:54.416Z,9.00
2024-02-22T08:09:54.373Z,8.87
2024-02-22T08:10:54.446Z,8.89
2024-02-22T08:12:26.817Z,8.95
2024-02-22T08:12:54.365Z,9.02
2024-02-22T08:13:54.374Z,9.00
2024-02-22T08:14:54.330Z,9.09
2024-02-22T08:15:54.319Z,8.97
2024-02-22T08:16:54.362Z,9.09
2024-02-22T08:17:54.358Z,9.16
2024-02-22T08:18:54.267Z,9.18
2024-02-22T08:19:54.414Z,9.16
2024-02-22T08:20:54.327Z,9.18
2024-02-22T08:21:54.260Z,9.31
2024-02-22T08:22:54.295Z,9.30
2024-02-22T08:23:54.230Z,9.29
2024-02-22T08:24:54.235Z,9.44
2024-02-22T08:25:54.273Z,9.42
2024-02-22T08:26:54.223Z,9.44
2024-02-22T08:28:02.530Z,9.36
2024-02-22T08:28:56.218Z,9.48
2024-02-22T08:29:54.168Z,9.39
2024-02-22T08:30:54.158Z,9.36
2024-02-22T08:31:54.194Z,9.39
2024-02-22T08:32:54.170Z,9.42
2024-02-22T08:33:54.262Z,9.33
2024-02-22T08:34:54.161Z,9.45
2024-02-22T08:35:54.103Z,9.51
2024-02-22T08:36:54.144Z,9.39
2024-02-22T08:37:54.178Z,9.48
2024-02-22T08:38:54.098Z,9.36
2024-02-22T08:39:54.093Z,9.52
2024-02-22T08:40:54.153Z,9.37
2024-02-22T08:41:54.056Z,9.51
2024-02-22T08:42:54.045Z,9.47
2024-02-22T08:43:54.087Z,9.44
2024-02-22T08:44:54.014Z,9.45
2024-02-22T08:45:54.033Z,9.48
2024-02-22T08:46:55.045Z,9.51
2024-02-22T08:47:54.108Z,9.40
2024-02-22T08:48:54.139Z,9.51
2024-02-22T08:49:54.001Z,9.51
2024-02-22T08:50:53.975Z,9.39
2024-02-22T08:51:53.945Z,9.45
2024-02-22T08:52:55.038Z,9.47
2024-02-22T08:53:53.917Z,9.44
2024-02-22T08:54:53.923Z,9.55
2024-02-22T08:55:53.943Z,9.48
2024-02-22T08:56:53.892Z,9.42
2024-02-22T08:57:55.402Z,9.44
2024-02-22T08:58:53.925Z,9.51
2024-02-22T08:59:53.852Z,9.52
2024-02-22T09:00:53.900Z,9.45
2024-02-22T09:01:53.927Z,9.44
2024-02-22T09:02:53.853Z,9.51
2024-02-22T09:03:53.897Z,9.51
2024-02-22T09:04:53.909Z,9.59
2024-02-22T09:05:53.827Z,9.55
2024-02-22T09:06:53.903Z,9.52
2024-02-22T09:07:53.918Z,9.45
2024-02-22T09:08:53.824Z,9.39
2024-02-22T09:09:53.754Z,9.52
2024-02-22T09:10:53.927Z,9.44
2024-02-22T09:11:53.886Z,9.52
2024-02-22T09:12:53.763Z,9.56
2024-02-22T09:13:53.808Z,9.59
2024-02-22T09:14:53.773Z,9.63
2024-02-22T09:15:53.721Z,9.74
2024-02-22T09:16:53.686Z,9.76
2024-02-22T09:17:53.694Z,9.74
2024-02-22T09:18:53.678Z,9.76
2024-02-22T09:19:53.691Z,9.84
2024-02-22T09:20:53.665Z,9.80
2024-02-22T09:21:53.653Z,9.73
2024-02-22T09:22:53.670Z,9.77
2024-02-22T09:23:53.730Z,9.90
2024-02-22T09:24:53.623Z,9.94
2024-02-22T09:25:53.598Z,9.92
2024-02-22T09:26:53.577Z,9.90
2024-02-22T09:27:53.572Z,9.92
2024-02-22T09:28:53.580Z,9.76
2024-02-22T09:29:53.580Z,9.85
2024-02-22T09:30:53.518Z,9.81
2024-02-22T09:31:53.534Z,9.85
2024-02-22T09:32:53.530Z,9.88
2024-02-22T09:33:54.558Z,9.88
2024-02-22T09:34:53.568Z,9.80
2024-02-22T09:35:53.503Z,9.88
2024-02-22T09:36:53.479Z,9.91
2024-02-22T09:37:53.493Z,9.94
2024-02-22T09:38:53.456Z,9.97
2024-02-22T09:39:53.444Z,9.94
2024-02-22T09:40:54.465Z,9.95
2024-02-22T09:41:53.408Z,9.97
2024-02-22T09:42:53.412Z,9.97
2024-02-22T09:43:53.441Z,9.85
2024-02-22T09:44:53.388Z,9.94
2024-02-22T09:45:53.376Z,9.92
2024-02-22T09:46:53.402Z,10.06
2024-02-22T09:47:53.406Z,10.13
2024-02-22T09:48:53.462Z,10.13
2024-02-22T09:49:53.369Z,10.05
2024-02-22T09:50:53.319Z,10.13
2024-02-22T09:51:53.344Z,10.15
2024-02-22T09:52:53.369Z,10.28
2024-02-22T09:53:53.281Z,10.23
2024-02-22T09:54:53.254Z,10.34
2024-02-22T09:55:53.346Z,10.36
2024-02-22T09:56:53.263Z,10.38
2024-02-22T09:57:53.378Z,10.34
2024-02-22T09:58:53.314Z,10.31
2024-02-22T09:59:53.469Z,10.23
2024-02-22T10:00:53.240Z,10.34
2024-02-22T10:01:53.216Z,10.51
2024-02-22T10:02:53.226Z,10.38
2024-02-22T10:03:53.186Z,10.42
2024-02-22T10:04:53.345Z,10.51
2024-02-22T10:05:53.317Z,10.64
2024-02-22T10:06:53.136Z,10.58
2024-02-22T10:07:53.173Z,10.53
2024-02-22T10:08:53.123Z,10.59
2024-02-22T10:09:53.117Z,10.42
2024-02-22T10:10:53.161Z,10.51
2024-02-22T10:11:53.234Z,10.41
2024-02-22T10:12:53.810Z,10.46
2024-02-22T10:13:53.128Z,10.53
2024-02-22T10:14:53.181Z,10.43
2024-02-22T10:15:53.084Z,10.62
2024-02-22T10:16:53.077Z,10.57
2024-02-22T10:17:53.053Z,10.57
2024-02-22T10:18:53.019Z,10.62
2024-02-22T10:19:53.056Z,10.62
2024-02-22T10:20:53.043Z,10.76
2024-02-22T10:21:52.997Z,10.79
2024-02-22T10:22:52.990Z,10.72
2024-02-22T10:23:52.978Z,10.97
2024-02-22T10:24:52.965Z,10.98
2024-02-22T10:25:53.034Z,10.80
2024-02-22T10:26:52.944Z,10.77
2024-02-22T10:27:52.905Z,10.92
2024-02-22T10:28:52.936Z,10.94
2024-02-22T10:29:52.890Z,10.77
2024-02-22T10:30:52.904Z,10.72
2024-02-22T10:31:52.892Z,11.00
2024-02-22T10:32:52.981Z,11.27
2024-02-22T10:33:52.898Z,11.35
2024-02-22T10:34:52.847Z,11.23
2024-02-22T10:35:52.863Z,11.16
2024-02-22T10:36:52.822Z,11.01
2024-02-22T10:37:52.829Z,11.08
2024-02-22T10:38:52.799Z,11.04
2024-02-22T10:39:52.793Z,10.90
2024-02-22T10:40:52.798Z,10.90
2024-02-22T10:41:52.749Z,10.90
2024-02-22T10:42:52.780Z,10.90
2024-02-22T10:43:52.771Z,11.04
2024-02-22T10:44:52.701Z,11.16
2024-02-22T10:45:52.707Z,11.18
2024-02-22T10:46:52.770Z,11.15
2024-02-22T10:47:52.836Z,11.15
2024-02-22T10:48:52.794Z,11.00
2024-02-22T10:49:52.711Z,10.89
2024-02-22T10:50:52.649Z,10.94
2024-02-22T10:51:52.668Z,10.89
2024-02-22T10:52:52.683Z,10.86
2024-02-22T10:53:52.634Z,10.94
2024-02-22T10:54:52.616Z,11.00
2024-02-22T10:55:52.664Z,10.86
2024-02-22T10:56:52.570Z,11.08
2024-02-22T10:57:52.596Z,11.07
2024-02-22T10:58:52.587Z,11.04
2024-02-22T10:59:52.552Z,11.08
2024-02-22T11:00:52.574Z,11.12
2024-02-22T11:01:52.618Z,10.95
2024-02-22T11:02:52.517Z,10.94
2024-02-22T11:03:52.543Z,10.83
2024-02-22T11:04:52.514Z,10.84
2024-02-22T11:05:53.335Z,10.77
2024-02-22T11:06:52.500Z,10.83
2024-02-22T11:07:52.673Z,10.83
2024-02-22T11:08:52.462Z,10.77
2024-02-22T11:09:52.501Z,10.77
2024-02-22T11:10:52.489Z,10.69
2024-02-22T11:11:52.682Z,10.76
2024-02-22T11:12:52.448Z,10.77
2024-02-22T11:13:52.387Z,10.79
2024-02-22T11:14:52.360Z,10.86
2024-02-22T11:15:52.410Z,10.68
2024-02-22T11:16:52.377Z,10.69
2024-02-22T11:17:52.340Z,10.80
2024-02-22T11:18:52.376Z,10.72
2024-02-22T11:19:53.338Z,10.77
2024-02-22T11:20:54.859Z,10.82
2024-02-22T11:21:52.333Z,10.71
2024-02-22T11:22:52.346Z,10.68
2024-02-22T11:23:52.283Z,10.69
2024-02-22T11:24:52.268Z,10.69
2024-02-22T11:25:52.314Z,10.75
2024-02-22T11:26:53.825Z,10.65
2024-02-22T11:27:52.219Z,10.69
2024-02-22T11:28:53.270Z,10.61
2024-02-22T11:29:52.195Z,10.62
2024-02-22T11:30:52.215Z,10.67
2024-02-22T11:31:52.244Z,10.67
2024-02-22T11:32:52.244Z,10.64
2024-02-22T11:33:52.205Z,10.64
2024-02-22T11:34:52.194Z,10.75
2024-02-22T11:35:52.148Z,10.77
2024-02-22T11:36:52.140Z,10.80
2024-02-22T11:37:52.166Z,10.77
2024-02-22T11:38:54.378Z,10.87
2024-02-22T11:39:52.091Z,10.72
2024-02-22T11:40:52.101Z,10.82
2024-02-22T11:41:52.097Z,10.69
2024-02-22T11:42:52.054Z,10.80
2024-02-22T11:43:52.066Z,10.76
2024-02-22T11:44:54.442Z,10.72
2024-02-22T11:45:52.034Z,10.68
2024-02-22T11:46:52.055Z,10.59
2024-02-22T11:47:52.097Z,10.72
2024-02-22T11:48:52.167Z,10.59
2024-02-22T11:49:52.040Z,10.55
2024-02-22T11:50:51.961Z,10.62
2024-02-22T11:51:52.004Z,10.55
2024-02-22T11:52:51.983Z,10.64
2024-02-22T11:53:51.931Z,10.59
2024-02-22T11:54:51.964Z,10.69
2024-02-22T11:55:51.987Z,10.68
2024-02-22T11:56:51.893Z,10.69
2024-02-22T11:57:51.912Z,10.72
2024-02-22T11:58:51.928Z,10.67
2024-02-22T11:59:51.877Z,10.71
2024-02-22T12:00:51.944Z,10.68
2024-02-22T12:01:51.909Z,10.76
2024-02-22T12:02:51.846Z,10.80
2024-02-22T12:03:51.820Z,10.79
2024-02-22T12:04:52.063Z,11.00
2024-02-22T12:05:51.953Z,11.01
2024-02-22T12:06:51.987Z,11.15
2024-02-22T12:07:51.909Z,11.12
2024-02-22T12:08:51.784Z,10.87
2024-02-22T12:09:51.773Z,10.95
2024-02-22T12:10:51.858Z,11.00
2024-02-22T12:11:51.839Z,11.02
2024-02-22T12:12:51.726Z,11.20
2024-02-22T12:13:51.736Z,11.18
2024-02-22T12:14:51.697Z,11.13
2024-02-22T12:15:51.723Z,11.23
2024-02-22T12:16:51.705Z,11.15
2024-02-22T12:17:51.785Z,11.22
2024-02-22T12:18:51.672Z,11.37
2024-02-22T12:19:51.681Z,11.43
2024-02-22T12:20:51.645Z,11.44
2024-02-22T12:21:51.615Z,11.30
2024-02-22T12:22:51.772Z,11.22
2024-02-22T12:23:51.629Z,11.26
2024-02-22T12:24:51.590Z,11.20
2024-02-22T12:25:51.682Z,11.25
2024-02-22T12:26:51.589Z,11.38
2024-02-22T12:27:51.557Z,11.27
2024-02-22T12:28:51.651Z,11.38
2024-02-22T12:29:51.561Z,11.44
2024-02-22T12:30:51.527Z,11.45
2024-02-22T12:31:51.534Z,11.53
2024-02-22T12:32:51.846Z,11.55
2024-02-22T12:33:51.729Z,11.55
2024-02-22T12:34:51.536Z,11.48
2024-02-22T12:35:51.500Z,11.30
2024-02-22T12:36:51.477Z,11.33
2024-02-22T12:37:51.737Z,11.34
2024-02-22T12:38:51.471Z,11.16
2024-02-22T12:39:51.409Z,11.23
2024-02-22T12:40:51.449Z,11.19
2024-02-22T12:41:51.410Z,11.20
2024-02-22T12:42:51.387Z,11.07
2024-02-22T12:43:51.419Z,11.23
2024-02-22T12:44:51.369Z,11.19
2024-02-22T12:45:51.355Z,11.25
2024-02-22T12:46:51.405Z,11.38
2024-02-22T12:47:51.441Z,11.40
2024-02-22T12:48:51.518Z,11.37
2024-02-22T12:49:51.350Z,11.26
2024-02-22T12:50:51.301Z,11.34
2024-02-22T12:51:52.290Z,11.44
2024-02-22T12:52:51.372Z,11.58
2024-02-22T12:53:51.282Z,11.58
2024-02-22T12:54:51.250Z,11.65
2024-02-22T12:55:51.281Z,11.80
2024-02-22T12:56:51.248Z,11.68
2024-02-22T12:57:51.221Z,11.67
2024-02-22T12:58:51.264Z,11.62
2024-02-22T12:59:51.216Z,11.78
2024-02-22T13:00:51.252Z,11.80
2024-02-22T13:01:51.270Z,11.62
2024-02-22T13:02:51.179Z,11.73
2024-02-22T13:03:51.258Z,11.76
2024-02-22T13:04:51.276Z,11.53
2024-02-22T13:05:51.141Z,11.51
2024-02-22T13:06:51.270Z,11.53
2024-02-22T13:07:51.145Z,11.49
2024-02-22T13:08:51.133Z,11.45
2024-02-22T13:09:51.121Z,11.45
2024-02-22T13:10:51.156Z,11.44
2024-02-22T13:11:51.178Z,11.43